createdAt,value
2018-11-02T00:01:29.552Z,99.50
2018-11-02T00:03:58.314Z,99.40
2018-11-02T00:06:27.003Z,99.40
2018-11-02T00:08:55.791Z,99.50
2018-11-02T00:11:24.351Z,99.40
2018-11-02T00:13:53.260Z,99.40
2018-11-02T00:16:22.784Z,99.50
2018-11-02T00:18:51.354Z,99.40
2018-11-02T00:21:19.990Z,99.40
2018-11-02T00:23:48.583Z,99.40
2018-11-02T00:26:17.164Z,99.40
2018-11-02T00:28:45.795Z,99.30
2018-11-02T00:31:14.421Z,99.30
2018-11-02T00:33:42.961Z,99.60
2018-11-02T00:36:11.444Z,99.30
2018-11-02T00:38:39.974Z,99.30
2018-11-02T00:41:08.520Z,99.30
2018-11-02T00:43:37.012Z,99.40
2018-11-02T00:46:06.054Z,99.40
2018-11-02T00:48:34.589Z,99.20
2018-11-02T00:51:03.108Z,99.00
2018-11-02T00:53:31.633Z,98.90
2018-11-02T00:56:00.254Z,98.70
2018-11-02T00:58:28.700Z,98.70
2018-11-02T01:00:57.934Z,98.70
2018-11-02T01:03:26.413Z,98.50
2018-11-02T01:05:54.932Z,98.60
2018-11-02T01:08:23.476Z,98.60
2018-11-02T01:10:51.986Z,98.70
2018-11-02T01:13:20.471Z,98.60
2018-11-02T01:15:49.182Z,98.60
2018-11-02T01:18:18.580Z,98.50
2018-11-02T01:20:47.061Z,98.60
2018-11-02T01:23:15.697Z,98.00
2018-11-02T01:25:44.215Z,97.60
2018-11-02T01:28:12.746Z,97.60
2018-11-02T01:30:41.244Z,97.50
2018-11-02T01:33:09.719Z,97.60
2018-11-02T01:35:38.308Z,97.50
2018-11-02T01:38:06.870Z,97.50
2018-11-02T01:40:35.419Z,97.50
2018-11-02T01:43:03.963Z,97.40
2018-11-02T01:45:32.498Z,97.40
2018-11-02T01:48:00.996Z,97.20
2018-11-02T01:50:29.484Z,97.40
2018-11-02T01:52:58.059Z,97.20
2018-11-02T01:55:26.622Z,97.20
2018-11-02T01:57:55.142Z,96.90
2018-11-02T02:00:23.749Z,96.80
2018-11-02T02:02:52.247Z,96.40
2018-11-02T02:05:20.766Z,96.50
2018-11-02T02:07:49.238Z,96.30
2018-11-02T02:10:17.785Z,96.20
2018-11-02T02:12:46.308Z,96.00
2018-11-02T02:15:14.940Z,95.80
2018-11-02T02:17:43.638Z,95.70
2018-11-02T02:20:12.141Z,95.60
2018-11-02T02:22:40.684Z,95.50
2018-11-02T02:25:09.264Z,95.50
2018-11-02T02:27:38.687Z,95.30
2018-11-02T02:30:10.969Z,95.20
2018-11-02T02:32:39.484Z,95.20
2018-11-02T02:35:09.030Z,95.40
2018-11-02T02:37:38.373Z,95.10
2018-11-02T02:40:07.942Z,94.90
2018-11-02T02:42:36.573Z,94.90
2018-11-02T02:45:07.369Z,95.10
2018-11-02T02:47:35.892Z,95.00
2018-11-02T02:50:05.551Z,94.70
2018-11-02T02:52:34.026Z,94.50
2018-11-02T02:55:02.625Z,94.20
2018-11-02T02:57:31.172Z,94.10
2018-11-02T02:59:59.723Z,94.10
2018-11-02T03:02:28.184Z,94.10
2018-11-02T03:04:56.884Z,94.10
2018-11-02T03:07:25.431Z,94.20
2018-11-02T03:09:54.026Z,94.30
2018-11-02T03:12:22.534Z,94.50
2018-11-02T03:14:51.092Z,94.70
2018-11-02T03:17:19.627Z,95.30
2018-11-02T03:19:48.148Z,95.30
2018-11-02T03:22:16.688Z,95.50
2018-11-02T03:24:45.310Z,95.70
2018-11-02T03:27:13.791Z,95.90
2018-11-02T03:29:42.296Z,96.00
2018-11-02T03:32:10.859Z,96.10
2018-11-02T03:34:39.429Z,96.20
2018-11-02T03:37:07.966Z,96.30
2018-11-02T03:39:36.505Z,96.40
2018-11-02T03:42:05.631Z,96.50
2018-11-02T03:44:34.171Z,96.50
2018-11-02T03:47:02.690Z,96.50
2018-11-02T03:49:31.181Z,96.50
2018-11-02T03:51:59.685Z,96.60
2018-11-02T03:54:28.854Z,96.60
2018-11-02T03:56:57.470Z,96.60
2018-11-02T03:59:25.894Z,96.70
2018-11-02T04:01:54.464Z,96.70
2018-11-02T04:04:23.086Z,96.80
2018-11-02T04:06:51.629Z,96.80
2018-11-02T04:09:20.253Z,96.90
2018-11-02T04:11:48.723Z,97.00
2018-11-02T04:14:17.322Z,97.10
2018-11-02T04:16:45.911Z,97.10
2018-11-02T04:19:14.464Z,97.20
2018-11-02T04:21:49.402Z,97.20
2018-11-02T04:24:18.066Z,97.20
2018-11-02T04:26:46.578Z,97.30
2018-11-02T04:29:15.774Z,97.10
2018-11-02T04:31:44.862Z,96.80
2018-11-02T04:34:14.085Z,96.50
2018-11-02T04:36:43.418Z,96.20
2018-11-02T04:39:13.418Z,95.70
2018-11-02T04:41:41.968Z,95.50
2018-11-02T04:44:11.143Z,95.20
2018-11-02T04:46:39.857Z,95.00
2018-11-02T04:49:08.925Z,94.70
2018-11-02T04:51:37.895Z,94.80
2018-11-02T04:54:06.454Z,94.30
2018-11-02T04:56:35.923Z,94.20
2018-11-02T04:59:04.423Z,94.20
2018-11-02T05:01:32.923Z,94.00
2018-11-02T05:04:01.451Z,93.90
2018-11-02T05:06:30.000Z,93.90
2018-11-02T05:08:58.552Z,93.80
2018-11-02T05:11:27.177Z,93.70
2018-11-02T05:13:55.714Z,93.70
2018-11-02T05:16:24.213Z,93.70
2018-11-02T05:18:54.826Z,94.10
2018-11-02T05:21:24.818Z,94.10
2018-11-02T05:23:53.207Z,94.10
2018-11-02T05:26:21.739Z,94.20
2018-11-02T05:28:50.298Z,94.00
2018-11-02T05:31:19.475Z,93.90
2018-11-02T05:33:48.022Z,93.70
2018-11-02T05:36:16.604Z,93.60
2018-11-02T05:38:45.167Z,93.90
2018-11-02T05:41:13.668Z,93.40
2018-11-02T05:43:42.108Z,93.20
2018-11-02T05:46:10.734Z,93.00
2018-11-02T05:48:39.304Z,92.90
2018-11-02T05:51:07.812Z,93.20
2018-11-02T05:53:36.282Z,93.20
2018-11-02T05:56:04.845Z,92.90
2018-11-02T05:58:33.322Z,92.60
2018-11-02T06:01:01.934Z,92.50
2018-11-02T06:03:30.399Z,92.40
2018-11-02T06:05:58.974Z,92.30
2018-11-02T06:08:27.535Z,92.20
2018-11-02T06:10:56.038Z,92.00
2018-11-02T06:13:24.666Z,91.90
2018-11-02T06:15:53.404Z,91.90
2018-11-02T06:18:21.992Z,91.90
2018-11-02T06:20:50.495Z,91.80
2018-11-02T06:23:19.040Z,91.90
2018-11-02T06:25:47.710Z,92.00
2018-11-02T06:28:16.413Z,92.00
2018-11-02T06:30:44.996Z,92.20
2018-11-02T06:33:13.607Z,92.20
2018-11-02T06:35:42.249Z,92.20
2018-11-02T06:38:11.471Z,92.30
2018-11-02T06:40:40.100Z,92.30
2018-11-02T06:43:09.645Z,92.40
2018-11-02T06:45:38.318Z,92.50
2018-11-02T06:48:06.904Z,92.50
2018-11-02T06:50:35.567Z,92.60
2018-11-02T06:53:04.430Z,92.60
2018-11-02T06:55:33.572Z,92.70
2018-11-02T06:58:02.110Z,92.80
2018-11-02T07:00:30.763Z,92.60
2018-11-02T07:02:59.371Z,92.50
2018-11-02T07:05:28.010Z,92.50
2018-11-02T07:07:57.274Z,92.30
2018-11-02T07:10:25.799Z,92.10
2018-11-02T07:12:54.285Z,92.10
2018-11-02T07:15:22.951Z,92.10
2018-11-02T07:17:51.498Z,92.10
2018-11-02T07:20:20.216Z,92.00
2018-11-02T07:22:48.844Z,91.90
2018-11-02T07:25:17.690Z,91.90
2018-11-02T07:27:46.124Z,92.00
2018-11-02T07:30:14.668Z,91.80
2018-11-02T07:32:43.244Z,91.60
2018-11-02T07:35:11.728Z,91.40
2018-11-02T07:37:40.224Z,91.40
2018-11-02T07:40:10.206Z,91.20
2018-11-02T07:42:38.841Z,91.30
2018-11-02T07:45:08.184Z,91.30
2018-11-02T07:47:36.870Z,91.10
2018-11-02T07:50:06.855Z,91.30
2018-11-02T07:52:35.594Z,90.90
2018-11-02T07:55:04.419Z,90.90
2018-11-02T07:57:33.727Z,91.40
2018-11-02T08:00:02.268Z,90.20
2018-11-02T08:02:31.101Z,90.10
2018-11-02T08:04:59.635Z,90.10
2018-11-02T08:07:28.148Z,90.00
2018-11-02T08:09:57.242Z,90.20
2018-11-02T08:12:25.907Z,90.60
2018-11-02T08:14:54.452Z,91.80
2018-11-02T08:17:23.060Z,91.10
2018-11-02T08:19:51.508Z,90.70
2018-11-02T08:22:20.047Z,90.10
2018-11-02T08:24:48.801Z,89.20
2018-11-02T08:27:17.343Z,88.80
2018-11-02T08:29:45.895Z,88.90
2018-11-02T08:32:14.501Z,89.10
2018-11-02T08:34:43.106Z,88.80
2018-11-02T08:37:11.695Z,88.80
2018-11-02T08:39:40.302Z,89.90
2018-11-02T08:42:08.844Z,89.70
2018-11-02T08:44:37.387Z,89.50
2018-11-02T08:47:06.049Z,89.40
2018-11-02T08:49:34.613Z,89.40
2018-11-02T08:52:03.322Z,87.90
2018-11-02T08:54:31.910Z,87.40
2018-11-02T08:57:00.500Z,86.70
2018-11-02T08:59:29.048Z,86.60
2018-11-02T09:01:57.869Z,86.40
2018-11-02T09:04:26.713Z,86.30
2018-11-02T09:06:55.400Z,86.50
2018-11-02T09:09:24.091Z,85.60
2018-11-02T09:11:52.658Z,85.20
2018-11-02T09:14:21.403Z,84.90
2018-11-02T09:16:50.171Z,85.00
2018-11-02T09:19:19.092Z,85.00
2018-11-02T09:21:47.897Z,84.80
2018-11-02T09:24:16.691Z,84.40
2018-11-02T09:26:45.239Z,84.10
2018-11-02T09:29:14.140Z,84.00
2018-11-02T09:31:42.923Z,83.60
2018-11-02T09:34:11.818Z,85.80
2018-11-02T09:36:40.626Z,84.40
2018-11-02T09:39:11.872Z,84.20
2018-11-02T09:41:40.665Z,83.90
2018-11-02T09:44:09.353Z,83.60
2018-11-02T09:46:38.059Z,84.00
2018-11-02T09:49:06.643Z,83.40
2018-11-02T09:51:35.920Z,82.80
2018-11-02T09:54:04.548Z,82.70
2018-11-02T09:56:33.164Z,82.50
2018-11-02T09:59:01.720Z,81.20
2018-11-02T10:01:30.263Z,80.50
2018-11-02T10:03:59.047Z,80.30
2018-11-02T10:06:28.133Z,80.90
2018-11-02T10:08:56.961Z,82.00
2018-11-02T10:11:25.765Z,81.20
2018-11-02T10:13:54.582Z,80.60
2018-11-02T10:16:23.537Z,79.80
2018-11-02T10:18:52.269Z,79.90
2018-11-02T10:21:21.776Z,82.50
2018-11-02T10:23:50.378Z,81.60
2018-11-02T10:26:18.919Z,81.60
2018-11-02T10:28:48.888Z,83.70
2018-11-02T10:31:17.461Z,82.30
2018-11-02T10:33:45.996Z,83.20
2018-11-02T10:36:14.664Z,82.00
2018-11-02T10:38:43.160Z,80.70
2018-11-02T10:41:14.958Z,80.10
2018-11-02T10:43:43.552Z,79.30
2018-11-02T10:46:12.055Z,79.10
2018-11-02T10:48:40.736Z,79.10
2018-11-02T10:51:10.152Z,78.50
2018-11-02T10:53:38.728Z,78.10
2018-11-02T10:56:07.363Z,77.80
2018-11-02T10:58:35.936Z,78.40
2018-11-02T11:01:10.094Z,78.20
2018-11-02T11:03:39.231Z,78.10
2018-11-02T11:06:07.858Z,78.20
2018-11-02T11:08:36.571Z,78.70
2018-11-02T11:11:05.511Z,78.90
2018-11-02T11:13:34.529Z,80.20
2018-11-02T11:16:03.220Z,79.40
2018-11-02T11:18:32.741Z,78.90
2018-11-02T11:21:01.444Z,79.10
2018-11-02T11:23:32.073Z,78.80
2018-11-02T11:26:00.623Z,79.30
2018-11-02T11:28:29.324Z,79.30
2018-11-02T11:30:57.929Z,80.00
2018-11-02T11:33:26.472Z,80.30
2018-11-02T11:35:55.277Z,80.60
2018-11-02T11:38:23.782Z,80.50
2018-11-02T11:40:52.489Z,80.80
2018-11-02T11:43:21.728Z,80.70
2018-11-02T11:45:50.400Z,80.90
2018-11-02T11:48:20.444Z,80.40
2018-11-02T11:50:49.983Z,78.90
2018-11-02T11:53:18.504Z,78.50
2018-11-02T11:55:47.184Z,79.00
2018-11-02T11:58:15.940Z,78.20
2018-11-02T12:00:44.681Z,78.30
2018-11-02T12:03:13.327Z,78.70
2018-11-02T12:05:42.015Z,79.20
2018-11-02T12:08:10.726Z,78.60
2018-11-02T12:10:39.446Z,78.40
2018-11-02T12:13:08.051Z,78.40
2018-11-02T12:15:36.653Z,78.60
2018-11-02T12:18:06.378Z,78.90
2018-11-02T12:20:34.888Z,79.20
2018-11-02T12:23:03.913Z,79.30
2018-11-02T12:25:33.210Z,79.80
2018-11-02T12:28:02.014Z,80.70
2018-11-02T12:30:30.794Z,80.30
2018-11-02T12:32:59.525Z,80.20
2018-11-02T12:35:28.247Z,80.60
2018-11-02T12:37:57.041Z,80.70
2018-11-02T12:40:26.281Z,79.90
2018-11-02T12:42:55.585Z,79.50
2018-11-02T12:45:24.558Z,79.30
2018-11-02T12:47:53.324Z,79.40
2018-11-02T12:50:24.906Z,79.30
2018-11-02T12:52:54.530Z,79.00
2018-11-02T12:55:23.490Z,79.20
2018-11-02T12:57:52.208Z,79.00
2018-11-02T13:00:23.233Z,78.20
2018-11-02T13:02:52.522Z,78.40
2018-11-02T13:05:21.255Z,77.40
2018-11-02T13:07:49.840Z,77.00
2018-11-02T13:10:19.624Z,77.70
2018-11-02T13:12:48.107Z,76.60
2018-11-02T13:15:18.767Z,77.50
2018-11-02T13:17:48.337Z,76.90
2018-11-02T13:20:17.222Z,77.10
2018-11-02T13:22:46.747Z,77.50
2018-11-02T13:25:16.715Z,78.20
2018-11-02T13:27:45.976Z,78.60
2018-11-02T13:30:14.740Z,78.90
2018-11-02T13:32:43.190Z,78.50
2018-11-02T13:35:13.981Z,79.20
2018-11-02T13:37:43.275Z,78.60
2018-11-02T13:40:13.145Z,78.70
2018-11-02T13:42:42.177Z,78.10
2018-11-02T13:45:12.272Z,78.50
2018-11-02T13:47:41.642Z,79.60
2018-11-02T13:50:10.644Z,79.60
2018-11-02T13:52:39.700Z,79.00
2018-11-02T13:55:09.049Z,78.80
2018-11-02T13:57:37.976Z,78.70
2018-11-02T14:00:09.464Z,79.90
2018-11-02T14:02:38.262Z,80.50
2018-11-02T14:05:08.217Z,80.10
2018-11-02T14:07:36.852Z,80.80
2018-11-02T14:10:05.796Z,80.20
2018-11-02T14:12:34.415Z,80.20
2018-11-02T14:15:03.046Z,80.70
2018-11-02T14:17:32.452Z,79.30
2018-11-02T14:20:01.920Z,78.90
2018-11-02T14:22:30.664Z,78.20
2018-11-02T14:24:59.309Z,78.10
2018-11-02T14:27:27.928Z,77.70
2018-11-02T14:29:56.506Z,77.90
2018-11-02T14:32:25.045Z,78.30
2018-11-02T14:34:53.795Z,78.40
2018-11-02T14:37:22.362Z,78.30
2018-11-02T14:39:51.641Z,78.10
2018-11-02T14:42:20.294Z,78.10
2018-11-02T14:44:49.009Z,77.90
2018-11-02T14:47:17.645Z,77.80
2018-11-02T14:49:46.659Z,78.10
2018-11-02T14:52:15.492Z,78.00
2018-11-02T14:54:44.383Z,77.80
2018-11-02T14:57:13.005Z,78.00
2018-11-02T14:59:42.083Z,78.20
2018-11-02T15:02:10.651Z,78.70
2018-11-02T15:04:39.856Z,79.30
2018-11-02T15:07:08.416Z,79.60
2018-11-02T15:09:37.126Z,80.10
2018-11-02T15:12:05.985Z,80.40
2018-11-02T15:14:34.803Z,80.50
2018-11-02T15:17:03.387Z,80.80
2018-11-02T15:19:32.735Z,81.20
2018-11-02T15:22:01.423Z,82.50
2018-11-02T15:24:30.134Z,82.80
2018-11-02T15:26:58.614Z,82.90
2018-11-02T15:29:27.151Z,83.20
2018-11-02T15:31:55.808Z,84.50
2018-11-02T15:34:24.455Z,84.70
2018-11-02T15:36:53.190Z,85.10
2018-11-02T15:39:21.757Z,85.30
2018-11-02T15:41:50.504Z,85.40
2018-11-02T15:44:19.422Z,85.60
2018-11-02T15:46:48.083Z,85.70
2018-11-02T15:49:16.835Z,85.80
2018-11-02T15:51:45.513Z,86.00
2018-11-02T15:54:14.413Z,85.80
2018-11-02T15:56:42.982Z,86.00
2018-11-02T15:59:11.498Z,85.90
2018-11-02T16:01:40.402Z,86.20
2018-11-02T16:04:09.189Z,86.40
2018-11-02T16:06:37.890Z,86.00
2018-11-02T16:09:12.997Z,86.20
2018-11-02T16:11:41.822Z,86.30
2018-11-02T16:14:10.651Z,86.60
2018-11-02T16:16:39.457Z,87.00
2018-11-02T16:19:08.144Z,86.90
2018-11-02T16:21:37.593Z,86.90
2018-11-02T16:24:11.376Z,86.90
2018-11-02T16:26:40.362Z,87.00
2018-11-02T16:29:09.464Z,87.10
2018-11-02T16:31:38.163Z,87.30
2018-11-02T16:34:06.890Z,87.60
2018-11-02T16:36:35.798Z,87.60
2018-11-02T16:39:07.085Z,87.70
2018-11-02T16:41:35.584Z,87.90
2018-11-02T16:44:04.264Z,88.80
2018-11-02T16:46:34.237Z,88.10
2018-11-02T16:49:03.054Z,88.40
2018-11-02T16:51:33.696Z,89.30
2018-11-02T16:54:02.415Z,88.80
2018-11-02T16:56:34.000Z,89.20
2018-11-02T16:59:03.034Z,89.40
2018-11-02T17:01:31.825Z,89.40
2018-11-02T17:04:00.493Z,89.80
2018-11-02T17:06:29.101Z,90.00
2018-11-02T17:08:58.708Z,90.10
2018-11-02T17:11:27.542Z,90.10
2018-11-02T17:13:56.338Z,90.20
2018-11-02T17:16:25.058Z,90.20
2018-11-02T17:18:53.939Z,90.20
2018-11-02T17:21:23.222Z,90.60
2018-11-02T17:23:51.922Z,90.40
2018-11-02T17:26:20.968Z,90.50
2018-11-02T17:28:53.745Z,90.50
2018-11-02T17:31:22.688Z,90.50
2018-11-02T17:33:52.534Z,90.60
2018-11-02T17:36:21.258Z,90.60
2018-11-02T17:38:52.490Z,90.60
2018-11-02T17:41:22.079Z,90.60
2018-11-02T17:43:52.913Z,90.70
2018-11-02T17:46:28.579Z,90.90
2018-11-02T17:48:58.204Z,90.90
2018-11-02T17:51:28.002Z,90.90
2018-11-02T17:53:56.802Z,90.90
2018-11-02T17:56:25.586Z,91.00
2018-11-02T17:58:54.489Z,90.90
2018-11-02T18:01:25.108Z,90.90
2018-11-02T18:03:53.755Z,91.00
2018-11-02T18:06:22.454Z,91.10
2018-11-02T18:08:51.463Z,91.10
2018-11-02T18:11:20.217Z,91.10
2018-11-02T18:13:49.003Z,91.10
2018-11-02T18:16:17.652Z,91.20
2018-11-02T18:18:47.776Z,91.20
2018-11-02T18:21:16.429Z,91.30
2018-11-02T18:23:45.109Z,91.30
2018-11-02T18:26:13.690Z,91.30
2018-11-02T18:28:42.328Z,91.60
2018-11-02T18:31:10.881Z,91.30
2018-11-02T18:33:39.783Z,91.30
2018-11-02T18:36:08.451Z,91.30
2018-11-02T18:38:37.091Z,91.40
2018-11-02T18:41:05.948Z,91.40
2018-11-02T18:43:34.612Z,91.40
2018-11-02T18:46:03.490Z,91.50
2018-11-02T18:48:32.177Z,91.50
2018-11-02T18:51:00.817Z,91.90
2018-11-02T18:53:29.495Z,91.60
2018-11-02T18:55:58.155Z,91.70
2018-11-02T18:58:26.842Z,91.80
2018-11-02T19:00:55.361Z,91.80
2018-11-02T19:03:24.043Z,91.80
2018-11-02T19:05:52.880Z,91.80
2018-11-02T19:08:21.593Z,91.90
2018-11-02T19:10:50.208Z,92.00
2018-11-02T19:13:18.811Z,92.00
2018-11-02T19:15:48.051Z,92.00
2018-11-02T19:18:17.094Z,92.10
2018-11-02T19:20:45.777Z,92.20
2018-11-02T19:23:14.694Z,92.20
2018-11-02T19:25:43.334Z,92.20
2018-11-02T19:28:12.074Z,92.20
2018-11-02T19:30:41.859Z,92.30
2018-11-02T19:33:10.542Z,92.30
2018-11-02T19:35:39.371Z,92.20
2018-11-02T19:38:08.212Z,92.30
2018-11-02T19:40:36.818Z,92.30
2018-11-02T19:43:06.074Z,92.30
2018-11-02T19:45:37.102Z,92.30
2018-11-02T19:48:06.326Z,92.30
2018-11-02T19:50:35.054Z,92.40
2018-11-02T19:53:03.725Z,92.50
2018-11-02T19:55:32.570Z,92.50
2018-11-02T19:58:01.339Z,92.50
2018-11-02T20:00:30.151Z,92.50
2018-11-02T20:02:58.871Z,92.50
2018-11-02T20:05:27.614Z,92.60
2018-11-02T20:07:56.310Z,92.60
2018-11-02T20:10:24.885Z,92.60
2018-11-02T20:12:53.685Z,92.70
2018-11-02T20:15:22.684Z,92.80
2018-11-02T20:17:51.413Z,92.90
2018-11-02T20:20:20.000Z,92.90
2018-11-02T20:22:48.754Z,93.00
2018-11-02T20:25:18.246Z,93.00
2018-11-02T20:27:46.989Z,93.10
2018-11-02T20:30:17.341Z,93.10
2018-11-02T20:32:46.675Z,93.00
2018-11-02T20:35:15.700Z,93.10
2018-11-02T20:37:44.299Z,93.10
2018-11-02T20:40:17.722Z,93.10
2018-11-02T20:42:46.720Z,93.20
2018-11-02T20:45:17.170Z,93.20
2018-11-02T20:47:51.676Z,93.20
2018-11-02T20:50:20.389Z,93.10
2018-11-02T20:52:52.115Z,93.10
2018-11-02T20:55:22.593Z,93.10
2018-11-02T20:57:51.354Z,93.10
2018-11-02T21:00:21.392Z,93.10
2018-11-02T21:02:50.191Z,93.10
2018-11-02T21:05:19.448Z,93.20
2018-11-02T21:07:48.569Z,93.20
2018-11-02T21:10:18.332Z,93.30
2018-11-02T21:12:47.137Z,93.30
2018-11-02T21:15:20.049Z,93.40
2018-11-02T21:17:49.121Z,93.40
2018-11-02T21:20:18.912Z,93.50
2018-11-02T21:22:47.465Z,93.50
2018-11-02T21:25:16.300Z,93.40
2018-11-02T21:27:45.484Z,93.40
2018-11-02T21:30:21.556Z,93.40
2018-11-02T21:32:50.695Z,93.40
2018-11-02T21:35:20.905Z,93.50
2018-11-02T21:37:49.821Z,93.40
2018-11-02T21:40:22.398Z,93.50
2018-11-02T21:42:50.969Z,93.50
2018-11-02T21:45:20.710Z,93.40
2018-11-02T21:47:49.261Z,93.50
2018-11-02T21:50:18.112Z,93.50
2018-11-02T21:52:46.696Z,93.50
2018-11-02T21:55:15.468Z,93.60
2018-11-02T21:57:44.041Z,93.30
2018-11-02T22:00:15.394Z,93.60
2018-11-02T22:02:44.277Z,93.70
2018-11-02T22:05:13.622Z,93.60
2018-11-02T22:07:43.228Z,93.90
2018-11-02T22:10:12.566Z,93.60
2018-11-02T22:12:41.030Z,93.50
2018-11-02T22:15:10.099Z,93.50
2018-11-02T22:17:39.288Z,93.50
2018-11-02T22:20:09.521Z,93.60
2018-11-02T22:22:38.068Z,93.70
2018-11-02T22:25:07.731Z,93.70
2018-11-02T22:27:36.500Z,93.80
2018-11-02T22:30:06.414Z,93.80
2018-11-02T22:32:34.896Z,93.70
2018-11-02T22:35:03.548Z,93.70
2018-11-02T22:37:32.123Z,93.70
2018-11-02T22:40:00.660Z,93.80
2018-11-02T22:42:29.313Z,93.80
2018-11-02T22:44:57.933Z,93.70
2018-11-02T22:47:26.498Z,93.70
2018-11-02T22:49:55.098Z,93.80
2018-11-02T22:52:23.728Z,93.80
2018-11-02T22:54:52.407Z,93.80
2018-11-02T22:57:20.998Z,93.80
2018-11-02T22:59:49.528Z,93.80
2018-11-02T23:02:18.094Z,93.80
2018-11-02T23:04:46.771Z,93.90
2018-11-02T23:07:15.383Z,93.90
2018-11-02T23:09:43.936Z,93.90
2018-11-02T23:12:12.535Z,93.90
2018-11-02T23:14:41.135Z,93.90
2018-11-02T23:17:09.743Z,93.80
2018-11-02T23:19:38.477Z,93.90
2018-11-02T23:22:07.238Z,93.90
2018-11-02T23:24:35.808Z,93.90
2018-11-02T23:27:04.435Z,93.90
2018-11-02T23:29:33.012Z,94.00
2018-11-02T23:32:01.515Z,94.00
2018-11-02T23:34:30.083Z,94.00
2018-11-02T23:36:58.663Z,94.10
2018-11-02T23:39:27.234Z,94.00
2018-11-02T23:41:55.751Z,94.00
2018-11-02T23:44:24.333Z,94.00
2018-11-02T23:46:52.969Z,94.10
2018-11-02T23:49:21.519Z,94.00
2018-11-02T23:51:50.186Z,94.00
2018-11-02T23:54:18.813Z,94.00
2018-11-02T23:56:47.475Z,94.00
2018-11-02T23:59:16.123Z,94.00
